createdAt,value
2022-08-30T00:25:42.545Z,1.65
2022-08-30T00:28:11.890Z,1.77
2022-08-30T00:30:42.204Z,1.83
2022-08-30T00:33:13.189Z,1.48
2022-08-30T00:35:43.673Z,1.80
2022-08-30T00:43:37.032Z,1.67
2022-08-30T00:46:10.476Z,1.60
2022-08-30T01:07:58.945Z,1.08
2022-08-30T01:10:32.798Z,1.30
2022-08-30T01:13:18.042Z,1.23
2022-08-30T01:35:08.012Z,1.25
2022-08-30T01:38:18.584Z,0.80
2022-08-30T01:40:47.332Z,1.08
2022-08-30T01:43:19.979Z,1.13
2022-08-30T01:45:49.151Z,1.30
2022-08-30T01:48:22.350Z,0.93
2022-08-30T01:50:59.022Z,0.93
2022-08-30T01:54:02.932Z,1.08
2022-08-30T01:56:31.357Z,1.05
2022-08-30T02:08:06.849Z,1.20
2022-08-30T02:10:38.508Z,1.17
2022-08-30T02:27:35.019Z,0.95
2022-08-30T02:30:06.463Z,1.10
2022-08-30T02:32:39.587Z,0.90
2022-08-30T02:35:09.624Z,1.00
2022-08-30T02:37:46.057Z,1.17
2022-08-30T03:19:16.294Z,1.33
2022-08-30T03:21:45.642Z,1.00
2022-08-30T03:50:11.627Z,1.05
2022-08-30T03:52:46.209Z,1.00
2022-08-30T04:39:22.378Z,4.30
2022-08-30T04:41:50.362Z,2.05
2022-08-30T04:44:19.821Z,1.90
2022-08-30T04:46:57.022Z,1.63
2022-08-30T04:49:26.079Z,1.88
2022-08-30T04:51:54.109Z,3.33
2022-08-30T04:54:22.671Z,3.00
2022-08-30T04:56:55.425Z,2.50
2022-08-30T05:02:00.790Z,5.53
2022-08-30T05:04:30.465Z,7.78
2022-08-30T05:06:58.487Z,6.70
2022-08-30T05:09:27.716Z,7.32
2022-08-30T05:12:09.088Z,7.90
2022-08-30T05:15:10.311Z,7.47
2022-08-30T05:17:39.609Z,8.57
2022-08-30T05:20:10.699Z,8.32
2022-08-30T05:22:41.067Z,13.95
2022-08-30T05:25:10.062Z,9.98
2022-08-30T05:27:42.680Z,8.75
2022-08-30T05:30:12.981Z,8.65
2022-08-30T05:32:42.066Z,8.77
2022-08-30T05:35:12.190Z,9.05
2022-08-30T05:37:40.891Z,8.27
2022-08-30T05:40:13.306Z,9.75
2022-08-30T05:42:41.911Z,8.05
2022-08-30T05:45:12.688Z,35.53
2022-08-30T05:49:41.642Z,7.88
2022-08-30T05:52:09.804Z,9.18
2022-08-30T05:54:44.394Z,8.30
2022-08-30T05:57:20.140Z,9.30
2022-08-30T06:17:29.460Z,9.40
2022-08-30T06:19:58.083Z,9.63
2022-08-30T06:36:27.494Z,7.97
2022-08-30T06:38:58.669Z,8.25
2022-08-30T06:43:11.008Z,8.05
2022-08-30T06:45:44.070Z,7.35
2022-08-30T06:48:18.855Z,7.40
2022-08-30T06:52:14.997Z,7.88
2022-08-30T06:55:19.733Z,8.77
2022-08-30T06:57:50.567Z,7.90
2022-08-30T07:00:21.464Z,7.72
2022-08-30T07:15:23.328Z,6.65
2022-08-30T07:18:12.079Z,6.35
2022-08-30T07:20:44.426Z,7.72
2022-08-30T07:23:15.496Z,7.25
2022-08-30T07:25:52.561Z,6.50
2022-08-30T07:28:56.290Z,5.90
2022-08-30T07:36:10.157Z,6.18
2022-08-30T07:44:17.521Z,6.13
2022-08-30T07:47:51.795Z,5.18
2022-08-30T07:50:26.517Z,4.72
2022-08-30T07:52:55.345Z,5.25
2022-08-30T07:55:23.988Z,5.20
2022-08-30T07:57:53.747Z,5.90
2022-08-30T08:00:22.125Z,4.88
2022-08-30T08:02:51.259Z,5.43
2022-08-30T08:10:44.941Z,5.68
2022-08-30T08:13:54.044Z,6.03
2022-08-30T08:16:29.009Z,6.95
2022-08-30T08:19:04.073Z,5.90
2022-08-30T08:21:32.158Z,5.55
2022-08-30T08:24:08.450Z,5.05
2022-08-30T08:26:38.752Z,4.45
2022-08-30T08:29:10.451Z,4.78
2022-08-30T08:40:24.702Z,4.40
2022-08-30T08:42:54.116Z,4.13
2022-08-30T08:45:38.987Z,3.55
2022-08-30T08:48:58.187Z,4.30
2022-08-30T08:51:47.126Z,2.50
2022-08-30T08:54:40.453Z,2.65
2022-08-30T08:57:15.259Z,2.67
2022-08-30T08:59:55.198Z,2.80
2022-08-30T09:03:04.794Z,2.03
2022-08-30T09:11:16.832Z,2.53
2022-08-30T09:13:54.669Z,2.58
2022-08-30T09:16:46.517Z,2.10
2022-08-30T09:24:40.597Z,3.35
2022-08-30T09:35:43.457Z,2.90
2022-08-30T09:38:20.044Z,3.20
2022-08-30T09:40:53.225Z,3.17
2022-08-30T09:43:23.911Z,4.50
2022-08-30T09:46:16.147Z,4.32
2022-08-30T09:48:46.904Z,3.88
2022-08-30T09:51:50.447Z,4.07
2022-08-30T09:54:30.996Z,3.55
2022-08-30T09:57:15.446Z,6.47
2022-08-30T10:00:02.639Z,5.05
2022-08-30T10:02:58.275Z,3.75
2022-08-30T10:05:40.131Z,3.65
2022-08-30T10:08:46.888Z,3.95
2022-08-30T10:12:00.040Z,4.30
2022-08-30T10:14:56.268Z,4.40
2022-08-30T10:17:39.404Z,4.00
2022-08-30T10:20:37.851Z,5.53
2022-08-30T10:23:17.282Z,4.50
2022-08-30T10:26:22.931Z,4.38
2022-08-30T10:29:03.674Z,4.95
2022-08-30T10:31:55.605Z,4.10
2022-08-30T10:34:33.238Z,8.48
2022-08-30T10:37:10.382Z,5.50
2022-08-30T10:40:44.824Z,4.22
2022-08-30T10:44:44.305Z,3.50
2022-08-30T10:47:46.723Z,4.05
2022-08-30T10:50:21.564Z,7.82
2022-08-30T10:53:09.351Z,4.85
2022-08-30T10:56:07.192Z,4.40
2022-08-30T10:58:42.737Z,5.15
2022-08-30T11:02:47.319Z,4.10
2022-08-30T11:05:43.016Z,4.47
2022-08-30T11:08:32.453Z,4.75
2022-08-30T11:16:17.193Z,4.65
2022-08-30T11:18:54.537Z,5.30
2022-08-30T11:21:38.367Z,4.68
2022-08-30T11:24:27.106Z,4.72
2022-08-30T11:26:59.867Z,5.80
2022-08-30T11:29:43.435Z,5.32
2022-08-30T11:32:25.991Z,5.13
2022-08-30T11:35:00.120Z,6.05
2022-08-30T11:37:52.388Z,5.13
2022-08-30T11:40:22.965Z,5.18
2022-08-30T11:43:19.235Z,6.68
2022-08-30T11:45:52.430Z,4.60
2022-08-30T11:49:15.512Z,4.68
2022-08-30T11:52:28.594Z,4.63
2022-08-30T11:55:12.193Z,4.53
2022-08-30T11:59:23.186Z,4.43
2022-08-30T12:01:52.663Z,4.93
2022-08-30T12:04:21.373Z,4.30
2022-08-30T12:07:00.762Z,4.43
2022-08-30T12:09:29.563Z,4.50
2022-08-30T12:12:02.793Z,3.60
2022-08-30T12:14:55.345Z,3.75
2022-08-30T12:18:31.853Z,3.53
2022-08-30T12:21:15.199Z,2.90
2022-08-30T12:24:15.946Z,4.10
2022-08-30T12:26:52.326Z,4.50
2022-08-30T12:29:31.667Z,3.50
2022-08-30T12:32:09.539Z,4.65
2022-08-30T12:34:55.983Z,3.90
2022-08-30T12:37:42.095Z,4.15
2022-08-30T12:40:21.361Z,3.80
2022-08-30T12:42:56.680Z,3.47
2022-08-30T12:45:30.849Z,3.22
2022-08-30T12:48:04.796Z,2.53
2022-08-30T12:50:52.159Z,3.27
2022-08-30T12:53:28.146Z,3.08
2022-08-30T12:55:56.798Z,2.78
2022-08-30T12:59:02.978Z,3.53
2022-08-30T13:01:39.266Z,3.72
2022-08-30T13:04:28.468Z,3.33
2022-08-30T13:07:01.288Z,2.85
2022-08-30T13:09:38.825Z,2.85
2022-08-30T13:12:22.604Z,2.55
2022-08-30T13:14:54.179Z,3.10
2022-08-30T13:17:27.068Z,2.47
2022-08-30T13:20:08.123Z,2.40
2022-08-30T13:22:39.120Z,2.30
2022-08-30T13:30:57.319Z,2.20
2022-08-30T13:33:25.480Z,2.08
2022-08-30T13:36:04.870Z,2.80
2022-08-30T13:38:33.791Z,2.50
2022-08-30T13:41:04.139Z,2.60
2022-08-30T13:44:09.398Z,2.53
2022-08-30T13:46:25.601Z,3.17
2022-08-30T13:49:04.844Z,2.25
2022-08-30T13:51:34.530Z,2.25
2022-08-30T13:54:07.519Z,2.80
2022-08-30T13:56:37.735Z,2.80
2022-08-30T13:59:07.225Z,2.97
2022-08-30T14:02:07.659Z,2.47
2022-08-30T14:04:27.271Z,2.17
2022-08-30T14:07:19.916Z,2.05
2022-08-30T14:09:48.224Z,2.10
2022-08-30T14:12:52.271Z,1.90
2022-08-30T14:15:07.697Z,2.15
2022-08-30T14:17:40.715Z,1.73
2022-08-30T14:20:11.907Z,1.85
2022-08-30T14:22:45.276Z,1.92
2022-08-30T14:25:16.489Z,1.90
2022-08-30T14:27:44.974Z,1.98
2022-08-30T14:30:16.783Z,1.63
2022-08-30T14:32:48.754Z,2.05
2022-08-30T14:35:19.360Z,2.63
2022-08-30T14:37:49.989Z,2.00
2022-08-30T14:40:19.021Z,2.20
2022-08-30T14:42:47.265Z,1.73
2022-08-30T14:45:15.831Z,2.08
2022-08-30T14:47:45.047Z,2.03
2022-08-30T14:50:13.216Z,2.10
2022-08-30T14:52:42.356Z,1.42
2022-08-30T14:55:13.983Z,2.03
2022-08-30T14:57:41.939Z,1.55
2022-08-30T15:00:12.113Z,1.92
2022-08-30T15:02:40.902Z,2.20
2022-08-30T15:05:08.974Z,1.70
2022-08-30T15:07:37.460Z,1.42
2022-08-30T15:10:07.655Z,2.10
2022-08-30T15:12:36.856Z,1.95
2022-08-30T15:15:05.651Z,1.80
2022-08-30T15:17:37.685Z,2.42
2022-08-30T15:20:11.869Z,1.88
2022-08-30T15:22:40.269Z,2.10
2022-08-30T15:25:13.619Z,1.67
2022-08-30T15:27:42.290Z,1.95
2022-08-30T15:30:12.168Z,1.90
2022-08-30T15:32:42.646Z,2.03
2022-08-30T15:35:12.770Z,2.03
2022-08-30T15:37:41.429Z,2.10
2022-08-30T15:40:11.763Z,1.60
2022-08-30T15:42:42.297Z,1.80
2022-08-30T15:45:11.241Z,2.00
2022-08-30T15:47:39.957Z,2.03
2022-08-30T15:50:09.010Z,2.08
2022-08-30T15:52:37.240Z,2.15
2022-08-30T15:55:07.033Z,1.67
2022-08-30T15:57:35.537Z,1.40
2022-08-30T16:00:06.488Z,1.38
2022-08-30T16:05:10.830Z,1.90
2022-08-30T16:07:40.962Z,1.65
2022-08-30T16:10:10.106Z,1.75
2022-08-30T16:12:38.318Z,1.70
2022-08-30T16:15:10.415Z,1.60
2022-08-30T16:17:39.555Z,1.60
2022-08-30T16:20:09.067Z,1.52
2022-08-30T16:22:45.924Z,1.88
2022-08-30T16:27:43.248Z,2.65
2022-08-30T16:30:14.834Z,2.15
2022-08-30T16:32:43.079Z,1.70
2022-08-30T16:35:11.464Z,1.70
2022-08-30T16:37:40.202Z,1.58
2022-08-30T16:40:09.610Z,1.67
2022-08-30T16:42:38.061Z,1.55
2022-08-30T16:45:10.514Z,1.30
2022-08-30T16:47:39.743Z,1.77
2022-08-30T16:50:08.543Z,1.15
2022-08-30T16:52:39.452Z,7.97
2022-08-30T16:55:13.079Z,3.20
2022-08-30T16:57:42.000Z,1.90
2022-08-30T17:00:13.725Z,1.35
2022-08-30T17:02:54.161Z,1.52
2022-08-30T17:05:23.260Z,1.45
2022-08-30T17:07:51.441Z,1.52
2022-08-30T17:10:23.113Z,1.00
2022-08-30T17:12:52.329Z,1.13
2022-08-30T17:15:21.642Z,1.70
2022-08-30T17:17:50.705Z,1.20
2022-08-30T17:20:21.945Z,2.05
2022-08-30T17:22:51.046Z,1.25
2022-08-30T17:25:19.806Z,1.13
2022-08-30T17:27:48.717Z,1.27
2022-08-30T17:30:17.280Z,1.00
2022-08-30T17:32:46.951Z,1.13
2022-08-30T17:35:18.619Z,1.02
2022-08-30T17:37:47.368Z,1.00
2022-08-30T17:40:50.437Z,1.27
2022-08-30T17:43:21.445Z,1.10
2022-08-30T17:45:51.433Z,1.35
2022-08-30T17:48:26.659Z,1.65
2022-08-30T17:51:04.670Z,1.50
2022-08-30T17:53:33.602Z,1.00
2022-08-30T17:56:10.075Z,1.15
2022-08-30T18:04:11.314Z,1.52
2022-08-30T18:06:39.919Z,1.83
2022-08-30T18:09:45.910Z,1.80
2022-08-30T18:12:15.614Z,1.55
2022-08-30T18:14:52.893Z,1.52
2022-08-30T18:17:23.622Z,1.98
2022-08-30T18:19:51.847Z,1.70
2022-08-30T18:22:19.939Z,1.58
2022-08-30T18:24:51.666Z,1.17
2022-08-30T18:27:24.425Z,0.90
2022-08-30T18:30:06.002Z,1.00
2022-08-30T18:32:38.038Z,1.20
2022-08-30T18:35:06.577Z,1.38
2022-08-30T18:37:37.753Z,1.10
2022-08-30T18:40:10.447Z,1.10
2022-08-30T18:42:49.713Z,1.58
2022-08-30T18:45:18.862Z,1.27
2022-08-30T18:47:46.945Z,1.33
2022-08-30T18:50:15.357Z,0.85
2022-08-30T18:52:50.465Z,0.70
2022-08-30T18:55:20.228Z,0.82
2022-08-30T18:57:48.980Z,0.55
2022-08-30T19:00:17.666Z,0.57
2022-08-30T19:02:47.899Z,1.30
2022-08-30T19:05:22.205Z,1.67
2022-08-30T19:07:59.388Z,2.25
2022-08-30T19:10:35.991Z,2.33
2022-08-30T19:13:18.070Z,2.00
2022-08-30T19:15:49.172Z,2.30
2022-08-30T19:18:19.931Z,1.70
2022-08-30T19:20:50.426Z,2.20
2022-08-30T19:23:23.334Z,2.95
2022-08-30T19:25:54.459Z,3.67
2022-08-30T19:28:31.766Z,2.35
2022-08-30T19:30:59.963Z,1.92
2022-08-30T19:33:28.088Z,1.55
2022-08-30T19:36:00.554Z,1.60
2022-08-30T19:38:35.839Z,1.30
2022-08-30T19:41:05.087Z,1.55
2022-08-30T19:43:33.651Z,1.10
2022-08-30T19:46:10.096Z,0.80
2022-08-30T19:48:46.929Z,1.13
2022-08-30T19:51:15.682Z,1.00
2022-08-30T19:53:44.715Z,1.10
2022-08-30T19:56:13.980Z,2.15
2022-08-30T19:58:42.213Z,2.60
2022-08-30T20:01:32.840Z,2.50
2022-08-30T20:04:02.771Z,1.67
2022-08-30T20:06:32.498Z,1.10
2022-08-30T20:09:01.305Z,1.23
2022-08-30T20:11:30.632Z,0.80
2022-08-30T20:13:58.685Z,1.15
2022-08-30T20:16:59.913Z,1.00
2022-08-30T20:19:32.023Z,1.02
2022-08-30T20:22:07.157Z,1.05
2022-08-30T20:24:43.764Z,0.70
2022-08-30T20:27:14.260Z,1.00
2022-08-30T20:30:16.359Z,0.75
2022-08-30T20:32:46.789Z,0.95
2022-08-30T20:35:16.809Z,0.90
2022-08-30T20:37:45.617Z,0.80
2022-08-30T20:40:16.017Z,1.20
2022-08-30T20:42:45.879Z,0.93
2022-08-30T20:45:47.432Z,0.93
2022-08-30T20:48:17.384Z,1.00
2022-08-30T20:50:46.015Z,0.90
2022-08-30T20:53:14.912Z,1.30
2022-08-30T20:55:48.089Z,2.08
2022-08-30T20:58:16.454Z,1.13
2022-08-30T21:00:53.737Z,0.98
2022-08-30T21:03:25.981Z,1.08
2022-08-30T21:05:58.710Z,1.13
2022-08-30T21:14:13.641Z,1.42
2022-08-30T21:16:45.796Z,1.10
2022-08-30T21:19:15.076Z,0.80
2022-08-30T21:21:43.835Z,1.48
2022-08-30T21:24:12.118Z,1.30
2022-08-30T21:26:42.030Z,0.98
2022-08-30T21:29:12.148Z,1.17
2022-08-30T21:33:16.642Z,1.20
2022-08-30T21:36:03.330Z,1.55
2022-08-30T21:38:31.269Z,0.90
2022-08-30T21:40:59.718Z,1.40
2022-08-30T21:43:29.571Z,1.00
2022-08-30T21:46:04.850Z,0.80
2022-08-30T21:49:06.769Z,0.88
2022-08-30T21:51:39.594Z,1.20
2022-08-30T21:54:09.797Z,1.60
2022-08-30T21:56:39.836Z,1.55
2022-08-30T21:59:09.762Z,1.08
2022-08-30T22:04:26.122Z,0.95
2022-08-30T22:06:54.459Z,1.10
2022-08-30T22:09:24.780Z,0.82
2022-08-30T22:11:54.015Z,1.10
2022-08-30T22:24:11.891Z,0.90
2022-08-30T22:26:41.044Z,0.80
2022-08-30T22:29:13.751Z,0.77
2022-08-30T22:32:55.617Z,0.88
2022-08-30T22:35:23.911Z,1.13
2022-08-30T22:37:54.972Z,1.10
2022-08-30T22:40:23.180Z,1.35
2022-08-30T22:43:00.701Z,1.17
2022-08-30T22:45:31.186Z,0.98
2022-08-30T22:47:59.309Z,1.40
2022-08-30T22:55:35.326Z,0.93
2022-08-30T22:58:03.407Z,0.90
2022-08-30T23:01:21.093Z,1.08
2022-08-30T23:09:13.358Z,1.60
2022-08-30T23:11:47.555Z,1.05
2022-08-30T23:14:17.519Z,1.30
2022-08-30T23:16:46.953Z,1.33
2022-08-30T23:19:16.740Z,1.52
2022-08-30T23:21:45.533Z,1.50
2022-08-30T23:29:36.650Z,1.30
2022-08-30T23:32:24.848Z,1.10
2022-08-30T23:38:36.684Z,1.00
2022-08-30T23:41:55.906Z,1.20
2022-08-30T23:44:44.412Z,1.52
2022-08-30T23:47:38.309Z,1.40
2022-08-30T23:50:25.351Z,1.27
2022-08-30T23:54:18.031Z,1.20
2022-08-30T23:57:06.119Z,1.30
